Flight Track Log - Related Links

Times and Time Zones

All times are in EDT time to prevent confusion due to time zone crossing. See the AWE1286 flight status page for this flight to view local times or setup timezone preferences in your user account.

Time Position Orientation Groundspeed Altitude Reporting Facility
EDT Latitude Longitude Course Direction KTS MPH feet Rate Location/Type
Sun 11:15:23 AM 39.8568 -75.2849 232° Southwest 195 224 600  Level FlightAware ADS-B
Sun 11:15:27 AM 39.8544 -75.2881 226° Southwest 197 227 800 2,400 Climbing FlightAware ADS-B
Sun 11:15:33 AM 39.8503 -75.2929 222° Southwest 199 229 1,000 2,211 Climbing FlightAware ADS-B
Sun 11:15:46 AM 39.8405 -75.3029 218° Southwest 211 243 1,500 2,000 Climbing FlightAware ADS-B
Sun 11:16:03 AM 39.8264 -75.3175 218° Southwest 231 266 2,000 2,294 Climbing FlightAware ADS-B
Sun 11:16:20 AM 39.8124 -75.3321 219° Southwest 238 274 2,800 2,727 Climbing FlightAware ADS-B
Sun 11:16:36 AM 39.7983 -75.3465 218° Southwest 246 283 3,500 2,690 Climbing FlightAware ADS-B
Sun 11:16:49 AM 39.7863 -75.3587 218° Southwest 252 290 4,100 2,857 Climbing FlightAware ADS-B
Sun 11:16:57 AM 39.7789 -75.3660 217° Southwest 256 295 4,500 3,000 Climbing FlightAware ADS-B
Sun 11:17:01 AM 39.7745 -75.3702 216° Southwest 258 297 4,700 3,000 Climbing FlightAware ADS-B
Sun 11:17:07 AM 39.7683 -75.3742 206° Southwest 261 300 5,000 3,273 Climbing FlightAware ADS-B
Sun 11:17:12 AM 39.7628 -75.3765 198° South 263 303 5,300 3,333 Climbing FlightAware ADS-B
Sun 11:17:16 AM 39.7581 -75.3776 190° South 265 305 5,500 2,571 Climbing FlightAware ADS-B
Sun 11:17:19 AM 39.7540 -75.3777 181° South 268 308 5,600 2,571 Climbing FlightAware ADS-B
Sun 11:17:23 AM 39.7492 -75.3772 175° South 272 313 5,800 2,250 Climbing FlightAware ADS-B
Sun 11:17:27 AM 39.7446 -75.3758 167° South 276 318 5,900 2,250 Climbing FlightAware ADS-B
Sun 11:17:31 AM 39.7398 -75.3734 159° South 278 320 6,100 2,571 Climbing FlightAware ADS-B
Sun 11:17:34 AM 39.7363 -75.3712 154° Southeast 279 321 6,200 3,000 Climbing FlightAware ADS-B
Sun 11:17:39 AM 39.7314 -75.3664 143° Southeast 279 321 6,500 3,000 Climbing FlightAware ADS-B
Sun 11:17:42 AM 39.7284 -75.3630 139° Southeast 280 322 6,600 2,571 Climbing FlightAware ADS-B
Sun 11:17:46 AM 39.7252 -75.3577 128° Southeast 281 323 6,800 3,429 Climbing FlightAware ADS-B
Sun 11:17:49 AM 39.7229 -75.3525 120° Southeast 281 323 7,000 2,571 Climbing FlightAware ADS-B
Sun 11:17:53 AM 39.7211 -75.3472 114° Southeast 281 323 7,100 3,000 Climbing FlightAware ADS-B
Sun 11:17:57 AM 39.7197 -75.3405 105° East 279 321 7,400 3,750 Climbing FlightAware ADS-B
Sun 11:18:01 AM 39.7190 -75.3338 98° East 279 321 7,600 3,000 Climbing FlightAware ADS-B
Sun 11:18:05 AM 39.7190 -75.3264 90° East 279 321 7,800 2,667 Climbing FlightAware ADS-B
Sun 11:18:10 AM 39.7195 -75.3185 85° East 279 321 8,000 3,000 Climbing FlightAware ADS-B
Sun 11:18:25 AM 39.7223 -75.2929 82° East 279 321 8,800 2,800 Climbing FlightAware ADS-B
Sun 11:18:40 AM 39.7250 -75.2690 82° East 284 327 9,400 1,800 Climbing FlightAware ADS-B
Sun 11:18:55 AM 39.7284 -75.2423 81° East 301 346 9,700 1,375 Climbing FlightAware ADS-B
Sun 11:19:28 AM 39.7364 -75.1805 80° East 334 384 10,500 1,108 Climbing FlightAware ADS-B
Sun 11:20:00 AM 39.7458 -75.1129 80° East 373 429 10,900 762 Climbing FlightAware ADS-B
Sun 11:20:31 AM 39.7558 -75.0430 79° East 385 443 11,300 667 Climbing FlightAware ADS-B
Sun 11:20:45 AM 39.7604 -75.0119 79° East 389 448 11,400 133 Climbing FlightAware ADS-B
Sun 11:21:16 AM 39.7696 -74.9403 80° East 401 461 11,400  Level FlightAware ADS-B
Sun 11:21:50 AM 39.7803 -74.8566 81° East 415 478 11,400 563 Level FlightAware ADS-B
Sun 11:22:20 AM 39.7901 -74.7822 80° East 422 486 12,000 2,164 Climbing FlightAware ADS-B
Sun 11:22:51 AM 39.8004 -74.7060 80° East 431 496 13,600 3,200 Climbing FlightAware ADS-B
Sun 11:23:05 AM 39.8053 -74.6675 81° East 436 502 14,400 2,933 Climbing FlightAware ADS-B
Sun 11:23:36 AM 39.8107 -74.5865 85° East 448 516 15,800 2,636 Climbing FlightAware ADS-B
Sun 11:24:11 AM 39.8172 -74.4913 85° East 461 531 17,300 2,667 Climbing FlightAware ADS-B
Sun 11:24:30 AM 39.8203 -74.4380 86° East 466 536 18,200 2,571 Climbing FlightAware ADS-B
Sun 11:25:00 AM 39.8218 -74.3535 89° East 474 545 19,400 2,444 Climbing FlightAware ADS-B
Sun 11:25:24 AM 39.8162 -74.2856 96° East 475 547 20,400 2,512 Climbing FlightAware ADS-B
Sun 11:25:43 AM 39.8033 -74.2335 108° East 474 545 21,200 2,160 Climbing FlightAware ADS-B
Sun 11:26:14 AM 39.7712 -74.1581 119° Southeast 482 555 22,200 1,672 Climbing FlightAware ADS-B
Sun 11:26:44 AM 39.7362 -74.0824 121° Southeast 490 564 22,900 727 Climbing FlightAware ADS-B
Sun 11:27:20 AM 39.6926 -73.9897 121° Southeast 497 572 23,000 87 Climbing FlightAware ADS-B
Sun 11:27:53 AM 39.6541 -73.9080 121° Southeast 492 566 23,000  Level FlightAware ADS-B
Sun 11:28:23 AM 39.6179 -73.8319 122° Southeast 490 564 23,000  Level FlightAware ADS-B
Sun 11:28:54 AM 39.5810 -73.7547 122° Southeast 491 565 23,000  Level FlightAware ADS-B
Sun 11:29:26 AM 39.5424 -73.6740 122° Southeast 492 566 23,000  Level FlightAware ADS-B
Sun 11:29:58 AM 39.5051 -73.5961 122° Southeast 491 565 23,000  Level FlightAware ADS-B
Sun 11:30:28 AM 39.4689 -73.5209 122° Southeast 491 565 23,000  Level FlightAware ADS-B
Sun 11:31:01 AM 39.4289 -73.4378 122° Southeast 491 565 23,000  Level FlightAware ADS-B
Sun 11:31:31 AM 39.3922 -73.3624 122° Southeast 491 565 23,000 476 Level FlightAware ADS-B
Sun 11:32:04 AM 39.3530 -73.2814 122° Southeast 489 563 23,500 1,688 Climbing FlightAware ADS-B
Sun 11:32:35 AM 39.3161 -73.2047 122° Southeast 489 563 24,800 2,308 Climbing FlightAware ADS-B
Sun 11:33:09 AM 39.2753 -73.1199 122° Southeast 496 571 26,000 2,031 Climbing FlightAware ADS-B
Sun 11:33:40 AM 39.2379 -73.0428 122° Southeast 501 577 27,000 1,831 Climbing FlightAware ADS-B
Sun 11:34:08 AM 39.2033 -72.9705 122° Southeast 512 589 27,800 1,756 Climbing FlightAware ADS-B
Sun 11:34:21 AM 39.1918 -72.9319 111° Southeast 523 602 28,200 2,651 Climbing FlightAware ADS-B
Sun 11:34:51 AM 39.1755 -72.8411 103° East 518 596 29,700 2,667 Climbing FlightAware ADS-B
Sun 11:35:24 AM 39.1582 -72.7451 103° East 514 592 31,000 2,190 Climbing FlightAware ADS-B
Sun 11:35:54 AM 39.1425 -72.6549 103° East 511 588 32,000 1,810 Climbing FlightAware ADS-B
Sun 11:36:27 AM 39.1259 -72.5583 102° East 511 588 32,900 952 Climbing FlightAware ADS-B
Sun 11:36:57 AM 39.1113 -72.4679 102° East 518 596 33,000 88 Climbing FlightAware ADS-B
Sun 11:37:35 AM 39.0918 -72.3521 102° East 514 592 33,000  Level FlightAware ADS-B
Sun 11:38:05 AM 39.0660 -72.2682 112° Southeast 500 575 33,000  Level FlightAware ADS-B
Sun 11:38:30 AM 39.0368 -72.2056 121° Southeast 487 560 33,000  Level FlightAware ADS-B
Sun 11:39:03 AM 38.9915 -72.1325 129° Southeast 479 551 33,000  Level FlightAware ADS-B
Sun 11:39:39 AM 38.9422 -72.0550 129° Southeast 478 550 33,000  Level FlightAware ADS-B
Sun 11:40:16 AM 38.8894 -71.9722 129° Southeast 480 552 33,000  Level FlightAware ADS-B
Sun 11:40:48 AM 38.8454 -71.9026 129° Southeast 481 554 33,000  Level FlightAware ADS-B
Sun 11:41:18 AM 38.8023 -71.8350 129° Southeast 482 555 33,000  Level FlightAware ADS-B
Sun 11:41:51 AM 38.7570 -71.7639 129° Southeast 482 555 33,000  Level FlightAware ADS-B
Sun 11:42:25 AM 38.7086 -71.6884 129° Southeast 482 555 33,000  Level FlightAware ADS-B
Sun 11:43:04 AM 38.6706 -71.6239 129° Southeast 484 557 33,000  Level New York Center
Sun 11:44:04 AM 38.5861 -71.4900 129° Southeast 478 550 33,000  Level New York Center
Sun 11:45:05 AM 38.5033 -71.3564 128° Southeast 478 550 33,000  Level New York Center
Sun 11:46:05 AM 38.4186 -71.2258 130° Southeast 478 550 33,000  Level New York Center
Sun 11:47:03 AM 38.3314 -71.0931 130° Southeast 483 556 33,000  Level New York Center
Sun 11:48:03 AM 38.2464 -70.9578 129° Southeast 483 556 33,000  Level New York Center
Sun 11:49:04 AM 38.1589 -70.8281 131° Southeast 483 556 33,000  Level New York Center
Sun 11:50:04 AM 38.0733 -70.7039 131° Southeast 478 550 33,000  Level New York Center
Sun 11:51:05 AM 37.9858 -70.5853 133° Southeast 466 536 33,000  Level New York Center
Sun 11:52:05 AM 37.8836 -70.5092 150° Southeast 441 507 33,000  Level New York Center
Sun 11:53:02 AM 38.0000 -70.5833 153° Southeast 409 471 33,000  Level New York Oceanic (ODAPS)
Sun 12:00:00 PM 36.9828 -69.9470 154° Southeast 409 471 33,000  Level FlightAware Transoceanic
Sun 12:01:00 PM 36.8809 -69.8842 154° Southeast 409 471 33,000  Level FlightAware Transoceanic
Sun 12:02:00 PM 36.7790 -69.8217 154° Southeast 409 471 33,000  Level FlightAware Transoceanic
Sun 12:03:00 PM 36.6770 -69.7594 154° Southeast 409 471 33,000  Level FlightAware Transoceanic
Sun 12:04:00 PM 36.5750 -69.6972 154° Southeast 409 471 33,000  Level FlightAware Transoceanic
Sun 12:05:00 PM 36.4730 -69.6351 154° Southeast 409 471 33,000  Level FlightAware Transoceanic
Sun 12:06:00 PM 36.3709 -69.5733 154° Southeast 409 471 33,000  Level FlightAware Transoceanic
Sun 12:07:00 PM 36.2688 -69.5116 154° Southeast 409 471 33,000  Level FlightAware Transoceanic
Sun 12:08:00 PM 36.1667 -69.4500 143° Southeast 409 471 33,000  Level FlightAware Transoceanic
Sun 12:09:00 PM 36.0604 -69.3494 143° Southeast 409 471 33,000  Level FlightAware Transoceanic
Sun 12:10:00 PM 35.9540 -69.2490 143° Southeast 409 471 33,000  Level FlightAware Transoceanic
Sun 12:11:00 PM 35.8475 -69.1490 143° Southeast 409 471 33,000  Level FlightAware Transoceanic
Sun 12:11:06 PM 36.1667 -69.4500 143° Southeast 456 525 33,000  Level New York Oceanic (ODAPS)
Sun 12:12:00 PM 35.7410 -69.0492 143° Southeast 409 471 33,000  Level FlightAware Transoceanic
Sun 12:13:00 PM 35.6344 -68.9497 143° Southeast 409 471 33,000  Level FlightAware Transoceanic
Sun 12:14:00 PM 35.5277 -68.8504 143° Southeast 409 471 33,000  Level FlightAware Transoceanic
Sun 12:15:00 PM 35.4209 -68.7514 143° Southeast 409 471 33,000  Level FlightAware Transoceanic
Sun 12:16:00 PM 35.3140 -68.6526 143° Southeast 409 471 33,000  Level FlightAware Transoceanic
Sun 12:17:00 PM 35.1536 -68.5050 143° Southeast 456 525 33,000  Level FlightAware Transoceanic
Sun 12:18:00 PM 35.0519 -68.4118 143° Southeast 456 525 33,000  Level FlightAware Transoceanic
Sun 12:19:00 PM 34.9501 -68.3188 143° Southeast 456 525 33,000  Level FlightAware Transoceanic
Sun 12:20:00 PM 34.8482 -68.2261 143° Southeast 456 525 33,000  Level FlightAware Transoceanic
Sun 12:21:00 PM 34.7463 -68.1336 143° Southeast 456 525 33,000  Level FlightAware Transoceanic
Sun 12:22:00 PM 34.6443 -68.0413 143° Southeast 456 525 33,000  Level FlightAware Transoceanic
Sun 12:23:00 PM 34.5423 -67.9493 143° Southeast 456 525 33,000  Level FlightAware Transoceanic
Sun 12:24:00 PM 34.4401 -67.8575 143° Southeast 456 525 33,000  Level FlightAware Transoceanic
Sun 12:25:00 PM 34.3379 -67.7659 144° Southeast 456 525 33,000  Level FlightAware Transoceanic
Sun 12:26:00 PM 34.2357 -67.6745 144° Southeast 456 525 33,000  Level FlightAware Transoceanic
Sun 12:27:00 PM 34.1333 -67.5833 170° South 456 525 33,000  Level FlightAware Transoceanic
Sun 12:28:00 PM 34.0072 -67.5554 170° South 456 525 33,000  Level FlightAware Transoceanic
Sun 12:28:32 PM 34.1333 -67.5833 170° South 453 521 33,000  Level New York Oceanic (ODAPS)
Sun 12:29:00 PM 33.8810 -67.5276 170° South 456 525 33,000  Level FlightAware Transoceanic
Sun 12:30:00 PM 33.7549 -67.4999 170° South 456 525 33,000  Level FlightAware Transoceanic
Sun 12:31:00 PM 33.6287 -67.4722 170° South 456 525 33,000  Level FlightAware Transoceanic
Sun 12:32:00 PM 33.5025 -67.4446 170° South 456 525 33,000  Level FlightAware Transoceanic
Sun 12:33:00 PM 33.3763 -67.4171 170° South 456 525 33,000  Level FlightAware Transoceanic
Sun 12:34:00 PM 33.2501 -67.3897 170° South 453 521 33,000  Level FlightAware Transoceanic
Sun 12:35:00 PM 33.1240 -67.3624 170° South 453 521 33,000  Level FlightAware Transoceanic
Sun 12:36:00 PM 32.9977 -67.3351 170° South 453 521 33,000  Level FlightAware Transoceanic
Sun 12:37:00 PM 32.8716 -67.3080 170° South 453 521 33,000  Level FlightAware Transoceanic
Sun 12:38:00 PM 32.7453 -67.2809 170° South 453 521 33,000  Level FlightAware Transoceanic
Sun 12:39:00 PM 32.6191 -67.2538 170° South 453 521 33,000  Level FlightAware Transoceanic
Sun 12:40:00 PM 32.4929 -67.2269 170° South 453 521 33,000  Level FlightAware Transoceanic
Sun 12:41:00 PM 32.3667 -67.2000 170° South 453 521 33,000  Level FlightAware Transoceanic
Sun 12:42:00 PM 32.2442 -67.1752 170° South 453 521 33,000  Level FlightAware Transoceanic
Sun 12:43:00 PM 32.1217 -67.1505 170° South 453 521 33,000  Level FlightAware Transoceanic
Sun 12:44:00 PM 31.9993 -67.1259 170° South 453 521 33,000  Level FlightAware Transoceanic
Sun 12:45:00 PM 31.8768 -67.1013 170° South 453 521 33,000  Level FlightAware Transoceanic
Sun 12:46:00 PM 31.7543 -67.0768 170° South 453 521 33,000  Level FlightAware Transoceanic
Sun 12:47:00 PM 31.6319 -67.0524 170° South 453 521 33,000  Level FlightAware Transoceanic
Sun 12:48:00 PM 31.5094 -67.0280 170° South 453 521 33,000  Level FlightAware Transoceanic
Sun 12:49:00 PM 31.3869 -67.0036 170° South 453 521 33,000  Level FlightAware Transoceanic
Sun 12:50:00 PM 31.2644 -66.9794 170° South 453 521 33,000  Level FlightAware Transoceanic
Sun 12:51:00 PM 31.1419 -66.9552 170° South 453 521 33,000  Level FlightAware Transoceanic
Sun 12:52:00 PM 31.0194 -66.9311 170° South 453 521 33,000  Level FlightAware Transoceanic
Sun 12:53:00 PM 30.8969 -66.9070 170° South 453 521 33,000  Level FlightAware Transoceanic
Sun 12:54:00 PM 30.7744 -66.8830 170° South 453 521 33,000  Level FlightAware Transoceanic
Sun 12:55:00 PM 30.6518 -66.8591 170° South 453 521 33,000  Level FlightAware Transoceanic
Sun 12:56:00 PM 30.5293 -66.8352 170° South 453 521 33,000  Level FlightAware Transoceanic
Sun 12:57:00 PM 30.4068 -66.8114 170° South 453 521 33,000  Level FlightAware Transoceanic
Sun 12:58:00 PM 30.2843 -66.7876 171° South 453 521 33,000  Level FlightAware Transoceanic
Sun 12:59:00 PM 30.1618 -66.7639 171° South 453 521 33,000  Level FlightAware Transoceanic
Sun 01:00:00 PM 30.0392 -66.7402 171° South 453 521 33,000  Level FlightAware Transoceanic
Sun 01:01:00 PM 29.9154 -66.7075 167° South  Level FlightAware Approximate
Sun 01:02:00 PM 29.9130 -66.7043 164° South  Level FlightAware Approximate
Sun 01:03:00 PM 29.7876 -66.6846 170° South  Level FlightAware Approximate
Sun 01:04:00 PM 29.6623 -66.6603 170° South  Level FlightAware Approximate
Sun 01:05:00 PM 29.5370 -66.6360 170° South  Level FlightAware Approximate
Sun 01:06:00 PM 29.4118 -66.6118 170° South  Level FlightAware Approximate
Sun 01:07:00 PM 29.2864 -66.5877 170° South  Level FlightAware Approximate
Sun 01:08:00 PM 29.1611 -66.5636 170° South  Level FlightAware Approximate
Sun 01:09:00 PM 29.0358 -66.5396 170° South  Level FlightAware Approximate
Sun 01:10:00 PM 28.9105 -66.5156 170° South  Level FlightAware Approximate
Sun 01:11:00 PM 28.7852 -66.4917 171° South  Level FlightAware Approximate
Sun 01:12:00 PM 28.6599 -66.4679 171° South  Level FlightAware Approximate
Sun 01:12:47 PM 29.9167 -66.7167 170° South 486 559 33,000  Level New York Oceanic (ODAPS)
Sun 01:13:00 PM 28.5346 -66.4441 171° South  Level FlightAware Approximate
Sun 01:14:00 PM 28.4078 -66.4201 171° South  Level FlightAware Approximate
Sun 01:15:00 PM 28.2810 -66.3961 171° South  Level FlightAware Approximate
Sun 01:16:00 PM 28.1542 -66.3722 171° South  Level FlightAware Approximate
Sun 01:17:00 PM 28.0274 -66.3484 171° South  Level FlightAware Approximate
Sun 01:18:00 PM 27.9006 -66.3246 171° South  Level FlightAware Approximate
Sun 01:19:00 PM 27.2237 -66.2017 171° South 486 559 33,000  Level FlightAware Transoceanic
Sun 01:20:00 PM 27.0891 -66.1767 171° South 486 559 33,000  Level FlightAware Transoceanic
Sun 01:21:00 PM 26.9543 -66.1516 171° South 486 559 33,000  Level FlightAware Transoceanic
Sun 01:22:00 PM 26.8196 -66.1267 171° South 486 559 33,000  Level FlightAware Transoceanic
Sun 01:23:00 PM 26.6849 -66.1018 171° South 486 559 33,000  Level FlightAware Transoceanic
Sun 01:24:00 PM 26.5502 -66.0770 171° South 486 559 33,000  Level FlightAware Transoceanic
Sun 01:25:00 PM 26.4155 -66.0522 171° South 486 559 33,000  Level FlightAware Transoceanic
Sun 01:26:00 PM 26.2808 -66.0275 171° South 486 559 33,000  Level FlightAware Transoceanic
Sun 01:27:00 PM 26.1460 -66.0028 171° South 486 559 33,000  Level FlightAware Transoceanic
Sun 01:28:00 PM 26.0113 -65.9782 171° South 486 559 33,000  Level FlightAware Transoceanic
Sun 01:29:00 PM 25.8766 -65.9536 171° South 486 559 33,000  Level FlightAware Transoceanic
Sun 01:30:00 PM 25.7418 -65.9292 171° South 486 559 33,000  Level FlightAware Transoceanic
Sun 01:31:00 PM 25.6071 -65.9047 171° South 486 559 33,000  Level FlightAware Transoceanic
Sun 01:32:00 PM 25.4724 -65.8803 171° South 486 559 33,000  Level FlightAware Transoceanic
Sun 01:33:00 PM 25.3376 -65.8560 171° South 486 559 33,000  Level FlightAware Transoceanic
Sun 01:34:00 PM 25.2029 -65.8317 171° South 486 559 33,000  Level FlightAware Transoceanic
Sun 01:35:00 PM 25.0681 -65.8075 171° South 486 559 33,000  Level FlightAware Transoceanic
Sun 01:36:00 PM 24.9333 -65.7833 171° South 486 559 33,000  Level FlightAware Transoceanic
Sun 01:37:00 PM 24.8030 -65.7604 171° South 486 559 33,000  Level FlightAware Transoceanic
Sun 01:38:00 PM 24.6728 -65.7375 171° South 486 559 33,000  Level FlightAware Transoceanic
Sun 01:39:00 PM 24.5425 -65.7146 171° South 486 559 33,000  Level FlightAware Transoceanic
Sun 01:40:00 PM 24.4122 -65.6918 171° South 486 559 33,000  Level FlightAware Transoceanic
Sun 01:41:00 PM 24.2819 -65.6690 171° South 486 559 33,000  Level FlightAware Transoceanic
Sun 01:42:00 PM 24.1516 -65.6463 171° South 486 559 33,000  Level FlightAware Transoceanic
Sun 01:43:00 PM 24.0213 -65.6236 171° South 486 559 33,000  Level FlightAware Transoceanic
Sun 01:44:00 PM 23.8909 -65.6010 171° South 486 559 33,000  Level FlightAware Transoceanic
Sun 01:45:00 PM 23.7606 -65.5784 171° South 486 559 33,000  Level FlightAware Transoceanic
Sun 01:46:00 PM 23.6303 -65.5558 171° South 486 559 33,000  Level FlightAware Transoceanic
Sun 01:47:00 PM 23.5034 -65.5339 171° South  Level FlightAware Approximate
Sun 01:48:00 PM 23.3764 -65.5121 171° South  Level FlightAware Approximate
Sun 01:49:00 PM 23.3822 -65.4997 165° South  Level FlightAware Approximate
Sun 01:50:00 PM 23.2579 -65.4643 165° South  Level FlightAware Approximate
Sun 01:51:00 PM 23.1335 -65.4290 165° South  Level FlightAware Approximate
Sun 01:51:04 PM 23.5000 -65.5333 165° South 473 544 33,000  Level New York Oceanic (ODAPS)
Sun 01:52:00 PM 23.0091 -65.3938 165° South  Level FlightAware Approximate
Sun 01:53:00 PM 22.8848 -65.3586 165° South  Level FlightAware Approximate
Sun 01:54:00 PM 22.7604 -65.3234 165° South  Level FlightAware Approximate
Sun 01:55:00 PM 22.6360 -65.2884 165° South  Level FlightAware Approximate
Sun 01:56:00 PM 22.5116 -65.2533 165° South  Level FlightAware Approximate
Sun 01:57:00 PM 22.2273 -65.1694 165° South 473 544 33,000  Level FlightAware Transoceanic
Sun 01:58:00 PM 22.1000 -65.1333 166° South 473 544 33,000  Level FlightAware Transoceanic
Sun 01:59:00 PM 21.9596 -65.0950 166° South 473 544 33,000  Level FlightAware Transoceanic
Sun 02:00:00 PM 21.8191 -65.0568 166° South 473 544 33,000  Level FlightAware Transoceanic
Sun 02:00:04 PM 21.9500 -65.1000 160° South 470 541 33,000  Level San Juan Center
Sun 02:01:00 PM 21.6786 -65.0186 166° South 473 544 33,000  Level FlightAware Transoceanic
Sun 02:01:29 PM 21.7333 -65.0667 172° South 490 564 33,000  Level San Juan Center
Sun 02:02:00 PM 21.5382 -64.9805 166° South 473 544 33,000 -500 Level FlightAware Transoceanic
Sun 02:02:29 PM 21.6000 -65.0833 187° South 490 564 32,500  Descending San Juan Center
Sun 02:03:00 PM 21.3977 -64.9425 166° South 473 544 33,000 -492 Climbing FlightAware Transoceanic
Sun 02:03:30 PM 21.4667 -65.1000 187° South 490 564 32,000  Descending San Juan Center
Sun 02:04:00 PM 21.2572 -64.9045 166° South 473 544 33,000 -500 Climbing FlightAware Transoceanic
Sun 02:04:30 PM 21.3333 -65.1167 187° South 480 552 31,500 -1,200 Descending San Juan Center
Sun 02:05:00 PM 21.1370 -64.8579 160° South  Level FlightAware Approximate
Sun 02:05:30 PM 21.2000 -65.1333 187° South 490 564 31,200  Level San Juan Center
Sun 02:06:31 PM 21.0667 -65.1500 187° South 490 564 31,000 -115 Descending San Juan Center
Sun 02:12:27 PM 20.2620 -65.2240 187° South 507 583 30,400 -197 Descending FlightAware ADS-B
Sun 02:13:07 PM 20.1650 -65.2300 183° South 502 578 29,700 -988 Descending FlightAware ADS-B
Sun 02:13:52 PM 20.0620 -65.2380 184° South 489 563 29,000 -988 Descending FlightAware ADS-B
Sun 02:14:32 PM 19.9690 -65.2460 185° South 484 557 28,300 -1,059 Descending FlightAware ADS-B
Sun 02:15:17 PM 19.8690 -65.2550 185° South 486 559 27,500 -988 Descending FlightAware ADS-B
Sun 02:15:57 PM 19.7810 -65.2630 185° South 483 556 26,900 -640 Descending FlightAware ADS-B
Sun 02:16:32 PM 19.7070 -65.2700 185° South 482 555 26,700 -141 Descending FlightAware ADS-B
Sun 02:17:22 PM 19.6130 -65.2790 185° South 482 555 26,700 -2,000 Level FlightAware ADS-B
Sun 02:18:02 PM 19.5010 -65.2890 185° South 468 539 23,700 -3,225 Descending FlightAware ADS-B
Sun 02:18:42 PM 19.4170 -65.2970 185° South 459 528 22,400 -2,047 Descending FlightAware ADS-B
Sun 02:19:27 PM 19.3240 -65.3060 185° South 450 518 20,800 -2,259 Descending FlightAware ADS-B
Sun 02:20:07 PM 19.2390 -65.3140 185° South 440 506 19,200 -2,329 Descending FlightAware ADS-B
Sun 02:20:52 PM 19.1480 -65.3220 185° South 430 495 17,500 -2,175 Descending FlightAware ADS-B
Sun 02:21:27 PM 19.0810 -65.3270 184° South 423 487 16,300 -2,612 Descending FlightAware ADS-B
Sun 02:22:17 PM 18.9830 -65.3150 173° South 420 483 13,800 -3,067 Descending FlightAware ADS-B
Sun 02:22:57 PM 18.9070 -65.3000 169° South 421 484 11,700 -2,625 Descending FlightAware ADS-B
Sun 02:23:37 PM 18.8320 -65.2860 170° South 400 460 10,300 -1,129 Descending FlightAware ADS-B
Sun 02:24:22 PM 18.7570 -65.2720 170° South 376 433 10,100 -141 Descending FlightAware ADS-B
Sun 02:25:02 PM 18.6990 -65.2610 170° South 376 433 10,100  Level FlightAware ADS-B
Sun 02:25:42 PM 18.6410 -65.2500 170° South 376 433 10,100 -1,453 Level FlightAware ADS-B
Sun 02:26:37 PM 18.5667 -65.2167 170° South 280 322 7,800 -2,348 Descending San Juan Center
Sun 02:27:37 PM 18.5000 -65.1667 145° Southeast 270 311 5,600 -2,200 Descending San Juan Center

Login

Don't have an account? Register now (free) for customized features, flight alerts, and more!